Terminal Aerodrome Forecast
Issued by NWS Cleveland, OH

Home | Current Version | Previous Version | Graphics & Text | Print | Product List | Glossary On
Versions: 1 2 3 4 5 6 7 8 9 10 11 12 13 14
652
FTUS41 KCLE 211219 AAA
TAFERI
TAF AMD
KERI 211219Z 2112/2212 27012G20KT P6SM OVC035
      TEMPO 2112/2116 BKN018
     FM220100 27010KT P6SM BKN030
     FM220600 32007KT P6SM OVC025=

USA.gov is the U.S. government's official web portal to all federal, state and local government web resources and services.